sensor_id;sensor_type;location;lat;lon;timestamp;P1;durP1;ratioP1;P2;durP2;ratioP2
18720;SDS011;9489;50.948;3.114;2023-03-24T00:03:07;6.03;;;3.88;;
18720;SDS011;9489;50.948;3.114;2023-03-24T00:05:32;4.30;;;3.90;;
18720;SDS011;9489;50.948;3.114;2023-03-24T00:07:58;5.43;;;3.70;;
18720;SDS011;9489;50.948;3.114;2023-03-24T00:10:24;4.50;;;3.58;;
18720;SDS011;9489;50.948;3.114;2023-03-24T00:12:50;5.93;;;3.97;;
18720;SDS011;9489;50.948;3.114;2023-03-24T00:15:17;4.47;;;3.55;;
18720;SDS011;9489;50.948;3.114;2023-03-24T00:17:44;5.00;;;3.80;;
18720;SDS011;9489;50.948;3.114;2023-03-24T00:20:14;4.32;;;3.38;;
18720;SDS011;9489;50.948;3.114;2023-03-24T00:22:41;4.78;;;3.95;;
18720;SDS011;9489;50.948;3.114;2023-03-24T00:25:18;4.20;;;3.80;;
18720;SDS011;9489;50.948;3.114;2023-03-24T00:27:47;4.47;;;4.07;;
18720;SDS011;9489;50.948;3.114;2023-03-24T00:30:15;4.95;;;3.80;;
18720;SDS011;9489;50.948;3.114;2023-03-24T00:32:42;5.15;;;3.75;;
18720;SDS011;9489;50.948;3.114;2023-03-24T00:35:09;5.63;;;3.67;;
18720;SDS011;9489;50.948;3.114;2023-03-24T00:37:37;4.10;;;3.22;;
18720;SDS011;9489;50.948;3.114;2023-03-24T00:40:07;3.17;;;2.85;;
18720;SDS011;9489;50.948;3.114;2023-03-24T00:42:37;3.42;;;2.00;;
18720;SDS011;9489;50.948;3.114;2023-03-24T00:45:05;3.20;;;1.90;;
18720;SDS011;9489;50.948;3.114;2023-03-24T00:47:33;2.25;;;1.63;;
18720;SDS011;9489;50.948;3.114;2023-03-24T00:50:05;2.63;;;1.38;;
18720;SDS011;9489;50.948;3.114;2023-03-24T00:52:33;1.25;;;0.80;;
18720;SDS011;9489;50.948;3.114;2023-03-24T00:55:00;1.35;;;1.00;;
18720;SDS011;9489;50.948;3.114;2023-03-24T00:57:27;1.08;;;0.82;;
18720;SDS011;9489;50.948;3.114;2023-03-24T00:59:59;2.90;;;1.13;;
18720;SDS011;9489;50.948;3.114;2023-03-24T01:02:33;1.42;;;0.98;;
18720;SDS011;9489;50.948;3.114;2023-03-24T01:04:59;2.35;;;1.05;;
18720;SDS011;9489;50.948;3.114;2023-03-24T01:07:26;2.03;;;1.25;;
18720;SDS011;9489;50.948;3.114;2023-03-24T01:09:54;2.83;;;1.10;;
18720;SDS011;9489;50.948;3.114;2023-03-24T01:12:24;2.75;;;1.52;;
18720;SDS011;9489;50.948;3.114;2023-03-24T01:14:58;2.83;;;1.13;;
18720;SDS011;9489;50.948;3.114;2023-03-24T01:17:25;2.83;;;1.15;;
18720;SDS011;9489;50.948;3.114;2023-03-24T01:19:51;2.40;;;1.27;;
18720;SDS011;9489;50.948;3.114;2023-03-24T01:22:17;5.22;;;1.48;;
18720;SDS011;9489;50.948;3.114;2023-03-24T01:24:45;2.55;;;1.63;;
18720;SDS011;9489;50.948;3.114;2023-03-24T01:27:11;4.20;;;1.58;;
18720;SDS011;9489;50.948;3.114;2023-03-24T01:29:37;4.47;;;1.52;;
18720;SDS011;9489;50.948;3.114;2023-03-24T01:32:04;4.90;;;1.70;;
18720;SDS011;9489;50.948;3.114;2023-03-24T01:34:30;2.90;;;1.48;;
18720;SDS011;9489;50.948;3.114;2023-03-24T01:36:57;4.10;;;1.80;;
18720;SDS011;9489;50.948;3.114;2023-03-24T01:39:23;4.43;;;1.80;;
18720;SDS011;9489;50.948;3.114;2023-03-24T01:41:49;4.20;;;1.92;;
18720;SDS011;9489;50.948;3.114;2023-03-24T01:44:29;3.53;;;1.73;;
18720;SDS011;9489;50.948;3.114;2023-03-24T01:47:01;3.90;;;1.40;;
18720;SDS011;9489;50.948;3.114;2023-03-24T01:49:35;5.50;;;1.80;;
18720;SDS011;9489;50.948;3.114;2023-03-24T01:52:08;3.50;;;1.88;;
18720;SDS011;9489;50.948;3.114;2023-03-24T01:54:44;3.03;;;1.73;;
18720;SDS011;9489;50.948;3.114;2023-03-24T01:57:26;2.25;;;1.73;;
18720;SDS011;9489;50.948;3.114;2023-03-24T02:00:00;6.05;;;2.38;;
18720;SDS011;9489;50.948;3.114;2023-03-24T02:02:31;6.85;;;2.10;;
18720;SDS011;9489;50.948;3.114;2023-03-24T02:05:01;7.15;;;2.55;;
18720;SDS011;9489;50.948;3.114;2023-03-24T02:10:20;7.03;;;2.10;;
18720;SDS011;9489;50.948;3.114;2023-03-24T02:12:47;6.40;;;2.00;;
18720;SDS011;9489;50.948;3.114;2023-03-24T02:15:14;9.23;;;2.33;;
18720;SDS011;9489;50.948;3.114;2023-03-24T02:25:51;8.95;;;2.50;;
18720;SDS011;9489;50.948;3.114;2023-03-24T02:34:23;7.05;;;2.50;;
18720;SDS011;9489;50.948;3.114;2023-03-24T02:59:03;11.75;;;3.35;;
18720;SDS011;9489;50.948;3.114;2023-03-24T03:01:33;10.93;;;2.60;;
18720;SDS011;9489;50.948;3.114;2023-03-24T03:04:08;14.80;;;3.08;;
18720;SDS011;9489;50.948;3.114;2023-03-24T03:06:58;13.32;;;3.30;;
18720;SDS011;9489;50.948;3.114;2023-03-24T03:09:33;11.95;;;3.08;;
18720;SDS011;9489;50.948;3.114;2023-03-24T03:12:02;13.30;;;2.80;;
18720;SDS011;9489;50.948;3.114;2023-03-24T03:14:43;11.95;;;3.53;;
18720;SDS011;9489;50.948;3.114;2023-03-24T03:17:15;11.35;;;3.10;;
18720;SDS011;9489;50.948;3.114;2023-03-24T03:20:01;15.55;;;3.25;;
18720;SDS011;9489;50.948;3.114;2023-03-24T03:22:43;7.82;;;2.35;;
18720;SDS011;9489;50.948;3.114;2023-03-24T03:25:13;12.43;;;2.90;;
18720;SDS011;9489;50.948;3.114;2023-03-24T03:27:44;13.88;;;2.92;;
18720;SDS011;9489;50.948;3.114;2023-03-24T03:32:41;13.55;;;3.08;;
18720;SDS011;9489;50.948;3.114;2023-03-24T03:35:28;14.38;;;2.95;;
18720;SDS011;9489;50.948;3.114;2023-03-24T03:38:15;10.00;;;3.30;;
18720;SDS011;9489;50.948;3.114;2023-03-24T03:40:50;14.38;;;3.50;;
18720;SDS011;9489;50.948;3.114;2023-03-24T03:43:19;10.90;;;3.00;;
18720;SDS011;9489;50.948;3.114;2023-03-24T03:45:45;13.30;;;3.00;;
18720;SDS011;9489;50.948;3.114;2023-03-24T03:48:11;12.82;;;3.22;;
18720;SDS011;9489;50.948;3.114;2023-03-24T03:50:37;12.68;;;3.55;;
18720;SDS011;9489;50.948;3.114;2023-03-24T03:53:04;9.88;;;2.80;;
18720;SDS011;9489;50.948;3.114;2023-03-24T03:55:30;10.48;;;2.92;;
18720;SDS011;9489;50.948;3.114;2023-03-24T03:57:58;10.15;;;3.03;;
18720;SDS011;9489;50.948;3.114;2023-03-24T04:00:23;11.50;;;2.92;;
18720;SDS011;9489;50.948;3.114;2023-03-24T04:08:37;12.30;;;3.67;;
18720;SDS011;9489;50.948;3.114;2023-03-24T04:22:28;12.10;;;2.88;;
18720;SDS011;9489;50.948;3.114;2023-03-24T04:25:22;13.77;;;3.05;;
18720;SDS011;9489;50.948;3.114;2023-03-24T04:28:01;12.50;;;3.10;;
18720;SDS011;9489;50.948;3.114;2023-03-24T04:35:59;13.15;;;3.78;;
18720;SDS011;9489;50.948;3.114;2023-03-24T04:38:40;13.02;;;2.92;;
18720;SDS011;9489;50.948;3.114;2023-03-24T04:41:09;21.17;;;3.67;;
18720;SDS011;9489;50.948;3.114;2023-03-24T04:43:36;8.95;;;2.53;;
18720;SDS011;9489;50.948;3.114;2023-03-24T04:46:03;10.55;;;2.90;;
18720;SDS011;9489;50.948;3.114;2023-03-24T04:48:30;11.40;;;3.65;;
18720;SDS011;9489;50.948;3.114;2023-03-24T04:50:57;18.35;;;4.05;;
18720;SDS011;9489;50.948;3.114;2023-03-24T04:53:25;12.43;;;3.67;;
18720;SDS011;9489;50.948;3.114;2023-03-24T04:56:00;15.32;;;3.95;;
18720;SDS011;9489;50.948;3.114;2023-03-24T04:58:31;11.60;;;3.70;;
18720;SDS011;9489;50.948;3.114;2023-03-24T05:00:57;13.57;;;3.40;;
18720;SDS011;9489;50.948;3.114;2023-03-24T05:03:23;8.65;;;3.08;;
18720;SDS011;9489;50.948;3.114;2023-03-24T05:05:50;12.25;;;2.97;;
18720;SDS011;9489;50.948;3.114;2023-03-24T05:08:16;15.23;;;4.07;;
18720;SDS011;9489;50.948;3.114;2023-03-24T05:10:43;11.77;;;2.92;;
18720;SDS011;9489;50.948;3.114;2023-03-24T05:13:09;11.20;;;2.88;;
18720;SDS011;9489;50.948;3.114;2023-03-24T05:15:35;13.45;;;2.80;;
18720;SDS011;9489;50.948;3.114;2023-03-24T05:18:01;10.70;;;3.15;;
18720;SDS011;9489;50.948;3.114;2023-03-24T05:20:28;11.32;;;3.15;;
18720;SDS011;9489;50.948;3.114;2023-03-24T05:22:54;13.02;;;3.17;;
18720;SDS011;9489;50.948;3.114;2023-03-24T05:25:21;14.52;;;3.60;;
18720;SDS011;9489;50.948;3.114;2023-03-24T05:27:47;16.77;;;3.85;;
18720;SDS011;9489;50.948;3.114;2023-03-24T05:30:13;10.32;;;3.00;;
18720;SDS011;9489;50.948;3.114;2023-03-24T05:32:39;10.95;;;3.28;;
18720;SDS011;9489;50.948;3.114;2023-03-24T05:35:05;16.23;;;3.90;;
18720;SDS011;9489;50.948;3.114;2023-03-24T05:37:31;12.57;;;3.28;;
18720;SDS011;9489;50.948;3.114;2023-03-24T05:39:56;14.05;;;3.20;;
18720;SDS011;9489;50.948;3.114;2023-03-24T05:42:22;12.88;;;3.03;;
18720;SDS011;9489;50.948;3.114;2023-03-24T05:44:48;13.77;;;2.75;;
18720;SDS011;9489;50.948;3.114;2023-03-24T05:47:14;15.90;;;3.20;;
18720;SDS011;9489;50.948;3.114;2023-03-24T05:49:43;12.18;;;2.75;;
18720;SDS011;9489;50.948;3.114;2023-03-24T05:52:12;13.68;;;3.33;;
18720;SDS011;9489;50.948;3.114;2023-03-24T05:54:41;17.85;;;3.35;;
18720;SDS011;9489;50.948;3.114;2023-03-24T05:57:09;11.27;;;3.75;;
18720;SDS011;9489;50.948;3.114;2023-03-24T05:59:40;13.02;;;3.33;;
18720;SDS011;9489;50.948;3.114;2023-03-24T06:02:06;12.77;;;2.83;;
18720;SDS011;9489;50.948;3.114;2023-03-24T06:04:32;13.38;;;2.95;;
18720;SDS011;9489;50.948;3.114;2023-03-24T06:06:58;12.65;;;3.50;;
18720;SDS011;9489;50.948;3.114;2023-03-24T06:09:24;8.32;;;3.33;;
18720;SDS011;9489;50.948;3.114;2023-03-24T06:11:56;10.57;;;3.65;;
18720;SDS011;9489;50.948;3.114;2023-03-24T06:14:22;12.02;;;2.65;;
18720;SDS011;9489;50.948;3.114;2023-03-24T06:16:47;11.75;;;3.40;;
18720;SDS011;9489;50.948;3.114;2023-03-24T06:19:14;14.80;;;3.50;;
18720;SDS011;9489;50.948;3.114;2023-03-24T06:21:40;12.88;;;3.33;;
18720;SDS011;9489;50.948;3.114;2023-03-24T06:24:06;13.25;;;2.95;;
18720;SDS011;9489;50.948;3.114;2023-03-24T06:26:31;10.63;;;3.50;;
18720;SDS011;9489;50.948;3.114;2023-03-24T06:28:57;9.70;;;3.00;;
18720;SDS011;9489;50.948;3.114;2023-03-24T06:31:23;13.35;;;3.53;;
18720;SDS011;9489;50.948;3.114;2023-03-24T06:33:49;10.60;;;2.88;;
18720;SDS011;9489;50.948;3.114;2023-03-24T06:36:16;14.05;;;3.25;;
18720;SDS011;9489;50.948;3.114;2023-03-24T06:38:42;10.88;;;2.85;;
18720;SDS011;9489;50.948;3.114;2023-03-24T06:41:09;11.07;;;2.90;;
18720;SDS011;9489;50.948;3.114;2023-03-24T06:43:35;13.43;;;3.40;;
18720;SDS011;9489;50.948;3.114;2023-03-24T06:46:01;12.27;;;3.05;;
18720;SDS011;9489;50.948;3.114;2023-03-24T06:48:27;7.68;;;3.15;;
18720;SDS011;9489;50.948;3.114;2023-03-24T06:50:53;11.60;;;2.88;;
18720;SDS011;9489;50.948;3.114;2023-03-24T06:53:20;13.68;;;3.50;;
18720;SDS011;9489;50.948;3.114;2023-03-24T06:55:46;12.88;;;3.50;;
18720;SDS011;9489;50.948;3.114;2023-03-24T06:58:13;12.15;;;2.88;;
18720;SDS011;9489;50.948;3.114;2023-03-24T07:00:39;7.90;;;2.40;;
18720;SDS011;9489;50.948;3.114;2023-03-24T07:03:06;11.27;;;2.85;;
18720;SDS011;9489;50.948;3.114;2023-03-24T07:05:32;13.70;;;3.10;;
18720;SDS011;9489;50.948;3.114;2023-03-24T07:08:03;11.02;;;2.67;;
18720;SDS011;9489;50.948;3.114;2023-03-24T07:10:29;17.55;;;2.83;;
18720;SDS011;9489;50.948;3.114;2023-03-24T07:12:55;12.07;;;3.03;;
18720;SDS011;9489;50.948;3.114;2023-03-24T07:15:21;11.85;;;2.83;;
18720;SDS011;9489;50.948;3.114;2023-03-24T07:17:47;10.52;;;2.70;;
18720;SDS011;9489;50.948;3.114;2023-03-24T07:20:13;14.02;;;2.72;;
18720;SDS011;9489;50.948;3.114;2023-03-24T07:22:40;9.55;;;2.80;;
18720;SDS011;9489;50.948;3.114;2023-03-24T07:25:06;10.95;;;2.65;;
18720;SDS011;9489;50.948;3.114;2023-03-24T07:27:32;12.75;;;3.03;;
18720;SDS011;9489;50.948;3.114;2023-03-24T07:29:59;12.45;;;2.70;;
18720;SDS011;9489;50.948;3.114;2023-03-24T07:32:25;6.22;;;2.60;;
18720;SDS011;9489;50.948;3.114;2023-03-24T07:34:52;11.00;;;2.92;;
18720;SDS011;9489;50.948;3.114;2023-03-24T07:37:18;11.75;;;3.13;;
18720;SDS011;9489;50.948;3.114;2023-03-24T07:39:44;15.23;;;3.35;;
18720;SDS011;9489;50.948;3.114;2023-03-24T07:42:10;12.70;;;3.30;;
18720;SDS011;9489;50.948;3.114;2023-03-24T07:44:35;9.38;;;2.75;;
18720;SDS011;9489;50.948;3.114;2023-03-24T07:47:01;13.50;;;5.97;;
18720;SDS011;9489;50.948;3.114;2023-03-24T07:49:26;12.30;;;3.20;;
18720;SDS011;9489;50.948;3.114;2023-03-24T07:51:52;10.25;;;2.90;;
18720;SDS011;9489;50.948;3.114;2023-03-24T07:54:17;11.25;;;3.28;;
18720;SDS011;9489;50.948;3.114;2023-03-24T07:56:43;11.30;;;2.78;;
18720;SDS011;9489;50.948;3.114;2023-03-24T07:59:09;14.07;;;3.20;;
18720;SDS011;9489;50.948;3.114;2023-03-24T08:01:35;9.43;;;2.28;;
18720;SDS011;9489;50.948;3.114;2023-03-24T08:04:02;9.85;;;2.45;;
18720;SDS011;9489;50.948;3.114;2023-03-24T08:06:28;9.52;;;3.13;;
18720;SDS011;9489;50.948;3.114;2023-03-24T08:08:54;7.63;;;2.72;;
18720;SDS011;9489;50.948;3.114;2023-03-24T08:11:19;11.23;;;3.50;;
18720;SDS011;9489;50.948;3.114;2023-03-24T08:13:45;6.93;;;2.70;;
18720;SDS011;9489;50.948;3.114;2023-03-24T08:16:11;8.48;;;2.28;;
18720;SDS011;9489;50.948;3.114;2023-03-24T08:18:37;11.27;;;2.88;;
18720;SDS011;9489;50.948;3.114;2023-03-24T08:21:03;8.45;;;2.92;;
18720;SDS011;9489;50.948;3.114;2023-03-24T08:23:29;8.73;;;2.60;;
18720;SDS011;9489;50.948;3.114;2023-03-24T08:25:54;11.13;;;3.15;;
18720;SDS011;9489;50.948;3.114;2023-03-24T08:28:20;13.07;;;2.60;;
18720;SDS011;9489;50.948;3.114;2023-03-24T08:30:46;13.98;;;3.25;;
18720;SDS011;9489;50.948;3.114;2023-03-24T08:33:12;10.13;;;2.70;;
18720;SDS011;9489;50.948;3.114;2023-03-24T08:35:39;10.27;;;2.55;;
18720;SDS011;9489;50.948;3.114;2023-03-24T08:38:06;12.07;;;3.40;;
18720;SDS011;9489;50.948;3.114;2023-03-24T08:40:33;16.52;;;3.13;;
18720;SDS011;9489;50.948;3.114;2023-03-24T08:43:02;11.52;;;3.33;;
18720;SDS011;9489;50.948;3.114;2023-03-24T08:45:32;12.65;;;2.60;;
18720;SDS011;9489;50.948;3.114;2023-03-24T08:47:58;14.70;;;3.05;;
18720;SDS011;9489;50.948;3.114;2023-03-24T08:50:27;8.80;;;2.80;;
18720;SDS011;9489;50.948;3.114;2023-03-24T08:52:56;14.38;;;3.28;;
18720;SDS011;9489;50.948;3.114;2023-03-24T08:55:22;15.23;;;3.05;;
18720;SDS011;9489;50.948;3.114;2023-03-24T08:57:49;9.88;;;2.75;;
18720;SDS011;9489;50.948;3.114;2023-03-24T09:00:15;10.25;;;2.80;;
18720;SDS011;9489;50.948;3.114;2023-03-24T09:02:42;8.52;;;2.65;;
18720;SDS011;9489;50.948;3.114;2023-03-24T09:05:16;10.15;;;2.60;;
18720;SDS011;9489;50.948;3.114;2023-03-24T09:07:44;11.98;;;3.40;;
18720;SDS011;9489;50.948;3.114;2023-03-24T09:10:11;11.40;;;2.97;;
18720;SDS011;9489;50.948;3.114;2023-03-24T09:12:38;14.60;;;2.97;;
18720;SDS011;9489;50.948;3.114;2023-03-24T09:15:04;12.32;;;3.22;;
18720;SDS011;9489;50.948;3.114;2023-03-24T09:17:31;13.43;;;3.05;;
18720;SDS011;9489;50.948;3.114;2023-03-24T09:19:57;6.78;;;2.50;;
18720;SDS011;9489;50.948;3.114;2023-03-24T09:22:23;7.85;;;2.47;;
18720;SDS011;9489;50.948;3.114;2023-03-24T09:24:49;10.70;;;2.53;;
18720;SDS011;9489;50.948;3.114;2023-03-24T09:27:15;4.63;;;2.15;;
18720;SDS011;9489;50.948;3.114;2023-03-24T09:29:41;5.85;;;1.73;;
18720;SDS011;9489;50.948;3.114;2023-03-24T09:32:07;5.97;;;1.85;;
18720;SDS011;9489;50.948;3.114;2023-03-24T09:34:33;6.18;;;1.95;;
18720;SDS011;9489;50.948;3.114;2023-03-24T09:37:02;5.18;;;1.77;;
18720;SDS011;9489;50.948;3.114;2023-03-24T09:39:28;5.43;;;1.67;;
18720;SDS011;9489;50.948;3.114;2023-03-24T09:41:54;3.88;;;1.20;;
18720;SDS011;9489;50.948;3.114;2023-03-24T09:44:22;4.93;;;1.55;;
18720;SDS011;9489;50.948;3.114;2023-03-24T09:46:56;4.10;;;1.23;;
18720;SDS011;9489;50.948;3.114;2023-03-24T09:49:36;5.55;;;1.60;;
18720;SDS011;9489;50.948;3.114;2023-03-24T09:52:06;6.72;;;1.67;;
18720;SDS011;9489;50.948;3.114;2023-03-24T09:57:17;3.95;;;1.42;;
18720;SDS011;9489;50.948;3.114;2023-03-24T10:00:00;5.53;;;1.65;;
18720;SDS011;9489;50.948;3.114;2023-03-24T10:02:41;5.13;;;1.80;;
18720;SDS011;9489;50.948;3.114;2023-03-24T10:05:18;6.88;;;2.00;;
18720;SDS011;9489;50.948;3.114;2023-03-24T10:07:55;4.68;;;1.92;;
18720;SDS011;9489;50.948;3.114;2023-03-24T10:10:48;5.40;;;2.10;;
18720;SDS011;9489;50.948;3.114;2023-03-24T10:13:29;8.77;;;2.88;;
18720;SDS011;9489;50.948;3.114;2023-03-24T10:16:29;5.20;;;2.13;;
18720;SDS011;9489;50.948;3.114;2023-03-24T10:22:35;8.25;;;2.45;;
18720;SDS011;9489;50.948;3.114;2023-03-24T10:30:33;9.18;;;2.60;;
18720;SDS011;9489;50.948;3.114;2023-03-24T10:33:03;7.22;;;2.05;;
18720;SDS011;9489;50.948;3.114;2023-03-24T10:35:33;7.53;;;2.40;;
18720;SDS011;9489;50.948;3.114;2023-03-24T10:38:03;6.28;;;2.30;;
18720;SDS011;9489;50.948;3.114;2023-03-24T10:40:51;6.53;;;2.20;;
18720;SDS011;9489;50.948;3.114;2023-03-24T10:43:19;10.98;;;2.83;;
18720;SDS011;9489;50.948;3.114;2023-03-24T10:45:46;8.45;;;2.28;;
18720;SDS011;9489;50.948;3.114;2023-03-24T10:48:32;5.15;;;1.85;;
18720;SDS011;9489;50.948;3.114;2023-03-24T10:51:00;8.80;;;2.33;;
18720;SDS011;9489;50.948;3.114;2023-03-24T10:53:25;8.02;;;2.22;;
18720;SDS011;9489;50.948;3.114;2023-03-24T10:55:51;9.88;;;2.63;;
18720;SDS011;9489;50.948;3.114;2023-03-24T10:58:27;9.10;;;2.30;;
18720;SDS011;9489;50.948;3.114;2023-03-24T11:01:26;9.32;;;2.92;;
18720;SDS011;9489;50.948;3.114;2023-03-24T11:03:58;7.45;;;1.98;;
18720;SDS011;9489;50.948;3.114;2023-03-24T11:06:25;7.40;;;2.63;;
18720;SDS011;9489;50.948;3.114;2023-03-24T11:09:14;7.72;;;2.33;;
18720;SDS011;9489;50.948;3.114;2023-03-24T11:11:41;6.03;;;2.25;;
18720;SDS011;9489;50.948;3.114;2023-03-24T11:14:17;8.18;;;1.98;;
18720;SDS011;9489;50.948;3.114;2023-03-24T11:16:49;7.82;;;2.15;;
18720;SDS011;9489;50.948;3.114;2023-03-24T11:19:20;9.38;;;2.95;;
18720;SDS011;9489;50.948;3.114;2023-03-24T11:21:47;9.23;;;3.22;;
18720;SDS011;9489;50.948;3.114;2023-03-24T11:24:16;8.95;;;2.70;;
18720;SDS011;9489;50.948;3.114;2023-03-24T11:26:44;9.77;;;2.97;;
18720;SDS011;9489;50.948;3.114;2023-03-24T11:29:18;9.95;;;2.58;;
18720;SDS011;9489;50.948;3.114;2023-03-24T11:31:55;9.38;;;2.97;;
18720;SDS011;9489;50.948;3.114;2023-03-24T11:34:34;8.40;;;3.08;;
18720;SDS011;9489;50.948;3.114;2023-03-24T11:37:16;9.65;;;2.88;;
18720;SDS011;9489;50.948;3.114;2023-03-24T11:39:43;7.72;;;2.70;;
18720;SDS011;9489;50.948;3.114;2023-03-24T11:45:25;7.43;;;2.28;;
18720;SDS011;9489;50.948;3.114;2023-03-24T11:47:55;7.40;;;2.13;;
18720;SDS011;9489;50.948;3.114;2023-03-24T11:50:23;7.18;;;2.65;;
18720;SDS011;9489;50.948;3.114;2023-03-24T11:58:15;7.38;;;1.98;;
18720;SDS011;9489;50.948;3.114;2023-03-24T12:00:59;12.27;;;2.95;;
18720;SDS011;9489;50.948;3.114;2023-03-24T12:06:27;7.47;;;2.42;;
18720;SDS011;9489;50.948;3.114;2023-03-24T12:14:41;5.07;;;1.80;;
18720;SDS011;9489;50.948;3.114;2023-03-24T12:23:12;6.72;;;1.85;;
18720;SDS011;9489;50.948;3.114;2023-03-24T12:28:54;6.43;;;1.55;;
18720;SDS011;9489;50.948;3.114;2023-03-24T12:43:10;10.10;;;2.40;;
18720;SDS011;9489;50.948;3.114;2023-03-24T12:45:54;5.95;;;2.00;;
18720;SDS011;9489;50.948;3.114;2023-03-24T12:48:28;7.30;;;2.00;;
18720;SDS011;9489;50.948;3.114;2023-03-24T12:55:04;6.40;;;1.98;;
18720;SDS011;9489;50.948;3.114;2023-03-24T12:57:35;7.43;;;2.20;;
18720;SDS011;9489;50.948;3.114;2023-03-24T13:00:10;5.50;;;2.10;;
18720;SDS011;9489;50.948;3.114;2023-03-24T13:02:38;5.88;;;1.92;;
18720;SDS011;9489;50.948;3.114;2023-03-24T13:05:17;6.78;;;1.95;;
18720;SDS011;9489;50.948;3.114;2023-03-24T13:08:08;4.57;;;1.77;;
18720;SDS011;9489;50.948;3.114;2023-03-24T13:10:37;5.47;;;1.60;;
18720;SDS011;9489;50.948;3.114;2023-03-24T13:15:49;6.47;;;1.60;;
18720;SDS011;9489;50.948;3.114;2023-03-24T13:18:28;7.60;;;1.80;;
18720;SDS011;9489;50.948;3.114;2023-03-24T13:21:05;7.25;;;1.77;;
18720;SDS011;9489;50.948;3.114;2023-03-24T13:37:26;5.22;;;1.88;;
18720;SDS011;9489;50.948;3.114;2023-03-24T13:39:59;6.82;;;2.13;;
18720;SDS011;9489;50.948;3.114;2023-03-24T13:42:31;5.38;;;1.58;;
18720;SDS011;9489;50.948;3.114;2023-03-24T13:45:00;7.78;;;1.90;;
18720;SDS011;9489;50.948;3.114;2023-03-24T13:47:49;5.55;;;1.50;;
18720;SDS011;9489;50.948;3.114;2023-03-24T13:50:46;6.35;;;1.48;;
18720;SDS011;9489;50.948;3.114;2023-03-24T13:53:25;4.32;;;1.48;;
18720;SDS011;9489;50.948;3.114;2023-03-24T13:55:58;4.28;;;2.00;;
18720;SDS011;9489;50.948;3.114;2023-03-24T13:58:25;6.20;;;1.20;;
18720;SDS011;9489;50.948;3.114;2023-03-24T14:03:40;5.97;;;1.73;;
18720;SDS011;9489;50.948;3.114;2023-03-24T14:06:10;6.63;;;1.63;;
18720;SDS011;9489;50.948;3.114;2023-03-24T14:08:41;6.03;;;1.65;;
18720;SDS011;9489;50.948;3.114;2023-03-24T14:16:44;8.15;;;1.75;;
18720;SDS011;9489;50.948;3.114;2023-03-24T14:22:28;4.82;;;1.50;;
18720;SDS011;9489;50.948;3.114;2023-03-24T14:27:44;7.70;;;1.73;;
18720;SDS011;9489;50.948;3.114;2023-03-24T14:30:53;5.07;;;1.67;;
18720;SDS011;9489;50.948;3.114;2023-03-24T14:33:23;7.82;;;2.05;;
18720;SDS011;9489;50.948;3.114;2023-03-24T14:35:50;5.32;;;1.65;;
18720;SDS011;9489;50.948;3.114;2023-03-24T14:38:25;8.15;;;2.10;;
18720;SDS011;9489;50.948;3.114;2023-03-24T14:40:51;5.10;;;1.40;;
18720;SDS011;9489;50.948;3.114;2023-03-24T14:46:04;3.97;;;1.60;;
18720;SDS011;9489;50.948;3.114;2023-03-24T14:49:04;5.07;;;1.65;;
18720;SDS011;9489;50.948;3.114;2023-03-24T14:51:42;7.72;;;2.45;;
18720;SDS011;9489;50.948;3.114;2023-03-24T14:54:17;5.60;;;1.55;;
18720;SDS011;9489;50.948;3.114;2023-03-24T14:56:51;6.22;;;1.70;;
18720;SDS011;9489;50.948;3.114;2023-03-24T15:01:49;7.30;;;1.60;;
18720;SDS011;9489;50.948;3.114;2023-03-24T15:04:20;5.85;;;1.90;;
18720;SDS011;9489;50.948;3.114;2023-03-24T15:06:46;6.30;;;1.55;;
18720;SDS011;9489;50.948;3.114;2023-03-24T15:09:16;7.03;;;1.80;;
18720;SDS011;9489;50.948;3.114;2023-03-24T15:11:43;7.40;;;2.28;;
18720;SDS011;9489;50.948;3.114;2023-03-24T15:14:17;6.78;;;1.80;;
18720;SDS011;9489;50.948;3.114;2023-03-24T15:16:50;8.20;;;1.67;;
18720;SDS011;9489;50.948;3.114;2023-03-24T15:19:25;8.13;;;1.85;;
18720;SDS011;9489;50.948;3.114;2023-03-24T15:21:57;6.10;;;1.77;;
18720;SDS011;9489;50.948;3.114;2023-03-24T15:24:28;7.40;;;1.92;;
18720;SDS011;9489;50.948;3.114;2023-03-24T15:29:38;7.53;;;2.13;;
18720;SDS011;9489;50.948;3.114;2023-03-24T15:32:06;5.47;;;1.50;;
18720;SDS011;9489;50.948;3.114;2023-03-24T15:34:41;7.28;;;2.03;;
18720;SDS011;9489;50.948;3.114;2023-03-24T15:37:18;6.80;;;1.83;;
18720;SDS011;9489;50.948;3.114;2023-03-24T15:39:49;4.65;;;1.52;;
18720;SDS011;9489;50.948;3.114;2023-03-24T15:42:17;7.03;;;2.30;;
18720;SDS011;9489;50.948;3.114;2023-03-24T15:44:46;7.40;;;2.42;;
18720;SDS011;9489;50.948;3.114;2023-03-24T15:47:22;4.47;;;1.20;;
18720;SDS011;9489;50.948;3.114;2023-03-24T15:49:56;4.45;;;1.42;;
18720;SDS011;9489;50.948;3.114;2023-03-24T15:52:30;7.82;;;1.80;;
18720;SDS011;9489;50.948;3.114;2023-03-24T15:57:52;4.07;;;1.90;;
18720;SDS011;9489;50.948;3.114;2023-03-24T16:00:23;6.22;;;2.40;;
18720;SDS011;9489;50.948;3.114;2023-03-24T16:02:55;6.35;;;1.35;;
18720;SDS011;9489;50.948;3.114;2023-03-24T16:07:53;5.80;;;1.63;;
18720;SDS011;9489;50.948;3.114;2023-03-24T16:10:27;3.95;;;1.40;;
18720;SDS011;9489;50.948;3.114;2023-03-24T16:12:57;3.25;;;0.95;;
18720;SDS011;9489;50.948;3.114;2023-03-24T16:15:30;4.20;;;1.10;;
18720;SDS011;9489;50.948;3.114;2023-03-24T16:17:56;4.40;;;1.10;;
18720;SDS011;9489;50.948;3.114;2023-03-24T16:20:21;4.85;;;1.17;;
18720;SDS011;9489;50.948;3.114;2023-03-24T16:22:47;7.53;;;1.55;;
18720;SDS011;9489;50.948;3.114;2023-03-24T16:25:13;4.78;;;1.20;;
18720;SDS011;9489;50.948;3.114;2023-03-24T16:27:38;4.15;;;1.10;;
18720;SDS011;9489;50.948;3.114;2023-03-24T16:30:18;4.82;;;1.30;;
18720;SDS011;9489;50.948;3.114;2023-03-24T16:32:48;4.47;;;1.10;;
18720;SDS011;9489;50.948;3.114;2023-03-24T16:35:14;2.90;;;1.15;;
18720;SDS011;9489;50.948;3.114;2023-03-24T16:37:40;3.17;;;1.13;;
18720;SDS011;9489;50.948;3.114;2023-03-24T16:43:05;4.90;;;1.25;;
18720;SDS011;9489;50.948;3.114;2023-03-24T16:45:30;3.97;;;1.75;;
18720;SDS011;9489;50.948;3.114;2023-03-24T16:47:57;6.50;;;1.40;;
18720;SDS011;9489;50.948;3.114;2023-03-24T16:52:57;4.03;;;1.25;;
18720;SDS011;9489;50.948;3.114;2023-03-24T16:55:23;4.63;;;1.13;;
18720;SDS011;9489;50.948;3.114;2023-03-24T16:57:48;3.63;;;1.33;;
18720;SDS011;9489;50.948;3.114;2023-03-24T17:00:14;5.65;;;1.50;;
18720;SDS011;9489;50.948;3.114;2023-03-24T17:02:40;4.90;;;1.80;;
18720;SDS011;9489;50.948;3.114;2023-03-24T17:05:36;3.22;;;1.25;;
18720;SDS011;9489;50.948;3.114;2023-03-24T17:08:06;5.25;;;1.30;;
18720;SDS011;9489;50.948;3.114;2023-03-24T17:10:34;5.75;;;1.52;;
18720;SDS011;9489;50.948;3.114;2023-03-24T17:13:00;4.63;;;1.30;;
18720;SDS011;9489;50.948;3.114;2023-03-24T17:15:27;5.53;;;1.45;;
18720;SDS011;9489;50.948;3.114;2023-03-24T17:17:53;4.95;;;1.27;;
18720;SDS011;9489;50.948;3.114;2023-03-24T17:20:20;4.35;;;1.50;;
18720;SDS011;9489;50.948;3.114;2023-03-24T17:22:48;6.68;;;1.35;;
18720;SDS011;9489;50.948;3.114;2023-03-24T17:25:16;4.78;;;1.40;;
18720;SDS011;9489;50.948;3.114;2023-03-24T17:27:45;5.78;;;1.55;;
18720;SDS011;9489;50.948;3.114;2023-03-24T17:30:14;5.60;;;1.60;;
18720;SDS011;9489;50.948;3.114;2023-03-24T17:32:44;7.03;;;1.48;;
18720;SDS011;9489;50.948;3.114;2023-03-24T17:35:11;4.68;;;1.60;;
18720;SDS011;9489;50.948;3.114;2023-03-24T17:37:39;3.30;;;1.25;;
18720;SDS011;9489;50.948;3.114;2023-03-24T17:40:05;5.72;;;1.40;;
18720;SDS011;9489;50.948;3.114;2023-03-24T17:42:37;5.18;;;1.30;;
18720;SDS011;9489;50.948;3.114;2023-03-24T17:45:04;4.53;;;1.40;;
18720;SDS011;9489;50.948;3.114;2023-03-24T17:47:32;9.27;;;2.35;;
18720;SDS011;9489;50.948;3.114;2023-03-24T17:49:57;4.82;;;1.65;;
18720;SDS011;9489;50.948;3.114;2023-03-24T17:52:23;9.13;;;2.00;;
18720;SDS011;9489;50.948;3.114;2023-03-24T17:54:49;5.05;;;1.23;;
18720;SDS011;9489;50.948;3.114;2023-03-24T17:57:15;5.18;;;1.63;;
18720;SDS011;9489;50.948;3.114;2023-03-24T17:59:41;4.95;;;1.80;;
18720;SDS011;9489;50.948;3.114;2023-03-24T18:02:09;5.47;;;1.73;;
18720;SDS011;9489;50.948;3.114;2023-03-24T18:04:36;4.75;;;1.83;;